Time;durP1;ratioP1;P1;durP2;ratioP2;P2;SDS_P1;SDS_P2;PMS_P1;PMS_P2;Temp;Humidity;BMP_temperature;BMP_pressure;BME280_temperature;BME280_humidity;BME280_pressure;Samples;Min_cycle;Max_cycle;Signal;HPM_P1;HPM_P2
2022/12/12 00:01:43;;;;;;;28.90;17.20;;;;;;;;;;6208021;23;20163;-70
2022/12/12 00:04:09;;;;;;;26.00;16.57;;;;;;;;;;6210525;23;20837;-70
2022/12/12 00:06:34;;;;;;;26.60;16.30;;;;;;;;;;6210959;23;20389;-70
2022/12/12 00:08:59;;;;;;;27.00;18.73;;;;;;;;;;6211181;23;20180;-70
2022/12/12 00:11:25;;;;;;;28.23;18.30;;;;;;;;;;6211778;23;20148;-70
2022/12/12 00:13:51;;;;;;;25.50;16.40;;;;;;;;;;6205850;23;20939;-70
2022/12/12 00:16:17;;;;;;;27.53;16.83;;;;;;;;;;6207466;23;20559;-71
2022/12/12 00:18:42;;;;;;;26.63;16.80;;;;;;;;;;6208852;23;20438;-71
2022/12/12 00:21:13;;;;;;;23.47;16.23;;;;;;;;;;6210231;23;20235;-70
2022/12/12 00:23:39;;;;;;;23.40;14.93;;;;;;;;;;6212070;23;20148;-70
2022/12/12 00:26:06;;;;;;;27.93;16.70;;;;;;;;;;6210854;23;20451;-70
2022/12/12 00:28:32;;;;;;;26.67;16.77;;;;;;;;;;6211207;23;20171;-70
2022/12/12 00:30:57;;;;;;;27.33;17.57;;;;;;;;;;6211596;23;20364;-70
2022/12/12 00:33:22;;;;;;;25.40;17.13;;;;;;;;;;6210398;23;20164;-70
2022/12/12 00:35:49;;;;;;;25.23;16.37;;;;;;;;;;6211759;23;20550;-69
2022/12/12 00:38:15;;;;;;;27.20;17.47;;;;;;;;;;6210870;23;20148;-70
2022/12/12 00:40:40;;;;;;;27.63;18.13;;;;;;;;;;6210452;23;20775;-70
2022/12/12 00:43:06;;;;;;;27.00;16.73;;;;;;;;;;6211043;23;20370;-70
2022/12/12 00:45:31;;;;;;;26.03;17.37;;;;;;;;;;6208977;23;20210;-70
2022/12/12 00:47:56;;;;;;;24.80;16.67;;;;;;;;;;6209282;23;20176;-70
2022/12/12 00:50:22;;;;;;;22.87;15.83;;;;;;;;;;6207846;23;20206;-70
2022/12/12 00:52:47;;;;;;;22.47;15.87;;;;;;;;;;6206601;23;20152;-70
2022/12/12 00:55:12;;;;;;;26.03;17.13;;;;;;;;;;6206427;23;20186;-71
2022/12/12 00:57:38;;;;;;;28.93;16.83;;;;;;;;;;6206936;23;20244;-70
2022/12/12 01:00:04;;;;;;;23.57;15.70;;;;;;;;;;6207516;23;20155;-70
2022/12/12 01:02:30;;;;;;;28.67;19.10;;;;;;;;;;6208945;23;20250;-70
2022/12/12 01:04:55;;;;;;;22.70;16.20;;;;;;;;;;6208217;23;20402;-71
2022/12/12 01:07:20;;;;;;;23.33;16.40;;;;;;;;;;6207526;23;20170;-70
2022/12/12 01:09:46;;;;;;;24.70;18.07;;;;;;;;;;6205402;23;20228;-70
2022/12/12 01:12:11;;;;;;;25.13;16.30;;;;;;;;;;6208496;23;20308;-70
2022/12/12 01:14:37;;;;;;;23.73;16.80;;;;;;;;;;6209073;23;20174;-70
2022/12/12 01:17:05;;;;;;;24.50;16.70;;;;;;;;;;6210082;23;20239;-70
2022/12/12 01:19:30;;;;;;;28.03;18.27;;;;;;;;;;6209733;23;20629;-70
2022/12/12 01:21:56;;;;;;;23.87;16.30;;;;;;;;;;6210913;23;20371;-70
2022/12/12 01:24:21;;;;;;;25.60;17.07;;;;;;;;;;6208373;23;20156;-71
2022/12/12 01:26:47;;;;;;;27.13;17.40;;;;;;;;;;6210156;23;20172;-71
2022/12/12 01:29:12;;;;;;;23.23;15.03;;;;;;;;;;6207788;23;20506;-70
2022/12/12 01:31:37;;;;;;;26.00;17.70;;;;;;;;;;6208743;23;20151;-70
2022/12/12 01:34:03;;;;;;;21.97;16.20;;;;;;;;;;6207869;23;20190;-70
2022/12/12 01:36:28;;;;;;;22.67;16.70;;;;;;;;;;6208310;23;20168;-70
2022/12/12 01:38:55;;;;;;;24.43;15.87;;;;;;;;;;6208110;23;20222;-70
2022/12/12 01:41:21;;;;;;;24.20;16.23;;;;;;;;;;6208017;23;20256;-70
2022/12/12 01:43:46;;;;;;;24.97;16.80;;;;;;;;;;6209014;23;20481;-70
2022/12/12 01:46:20;;;;;;;22.40;16.37;;;;;;;;;;6208234;23;20175;-71
2022/12/12 01:48:49;;;;;;;22.93;16.20;;;;;;;;;;6208319;23;20579;-71
2022/12/12 01:51:19;;;;;;;23.00;16.17;;;;;;;;;;6209086;23;20844;-70
2022/12/12 01:53:46;;;;;;;24.93;17.33;;;;;;;;;;6207593;23;20463;-70
2022/12/12 01:56:13;;;;;;;24.07;16.30;;;;;;;;;;6207409;23;20411;-70
2022/12/12 01:58:43;;;;;;;24.17;16.27;;;;;;;;;;6209548;23;20396;-70
2022/12/12 02:01:09;;;;;;;24.67;16.73;;;;;;;;;;6208683;23;20374;-70
2022/12/12 02:03:35;;;;;;;25.30;17.00;;;;;;;;;;6208587;23;20364;-70
2022/12/12 02:06:04;;;;;;;23.67;16.87;;;;;;;;;;6209003;23;20413;-70
2022/12/12 02:08:29;;;;;;;23.30;16.00;;;;;;;;;;6208105;23;20178;-70
2022/12/12 02:10:55;;;;;;;24.87;16.27;;;;;;;;;;6208810;23;20367;-70
2022/12/12 02:13:28;;;;;;;23.63;16.80;;;;;;;;;;6211491;23;20520;-70
2022/12/12 02:15:53;;;;;;;24.47;17.57;;;;;;;;;;6208827;23;20663;-70
2022/12/12 02:18:24;;;;;;;24.13;17.50;;;;;;;;;;6211451;23;20451;-70
2022/12/12 02:20:52;;;;;;;23.80;16.50;;;;;;;;;;6209325;23;20202;-70
2022/12/12 02:23:40;;;;;;;25.40;17.27;;;;;;;;;;6208417;23;20383;-70
2022/12/12 02:26:08;;;;;;;22.43;15.67;;;;;;;;;;6210548;23;20382;-70
2022/12/12 02:28:40;;;;;;;23.00;15.97;;;;;;;;;;6209822;23;20892;-70
2022/12/12 02:31:17;;;;;;;22.20;15.83;;;;;;;;;;6210016;23;20375;-70
2022/12/12 02:34:09;;;;;;;26.97;17.27;;;;;;;;;;6209338;23;20367;-70
2022/12/12 02:36:37;;;;;;;24.50;16.80;;;;;;;;;;6206916;23;20403;-70
2022/12/12 02:39:07;;;;;;;23.10;16.53;;;;;;;;;;6210505;23;20395;-71
2022/12/12 02:41:38;;;;;;;24.70;16.80;;;;;;;;;;6210261;23;20845;-70
2022/12/12 02:44:06;;;;;;;25.67;15.97;;;;;;;;;;6210989;23;20374;-70
2022/12/12 02:46:35;;;;;;;25.60;16.30;;;;;;;;;;6209365;23;20398;-70
2022/12/12 02:49:03;;;;;;;24.37;16.43;;;;;;;;;;6209418;23;20418;-70
2022/12/12 02:51:30;;;;;;;25.13;17.17;;;;;;;;;;6209338;23;20363;-70
2022/12/12 02:53:57;;;;;;;26.53;16.63;;;;;;;;;;6209029;23;20359;-70
2022/12/12 02:56:41;;;;;;;28.30;17.83;;;;;;;;;;6207856;23;20442;-70
2022/12/12 02:59:07;;;;;;;25.00;15.90;;;;;;;;;;6209061;23;20371;-70
2022/12/12 03:01:32;;;;;;;26.00;17.50;;;;;;;;;;6208892;23;20764;-70
2022/12/12 03:09:53;;;;;;;25.73;17.20;;;;;;;;;;6208541;23;20359;-70
2022/12/12 03:12:51;;;;;;;25.13;17.40;;;;;;;;;;6205054;23;20740;-70
2022/12/12 03:15:22;;;;;;;25.63;17.17;;;;;;;;;;6174615;23;20152;-70
2022/12/12 03:18:01;;;;;;;24.07;16.97;;;;;;;;;;6209973;23;20734;-70
2022/12/12 03:20:34;;;;;;;23.07;16.10;;;;;;;;;;6209925;23;20398;-69
2022/12/12 03:23:03;;;;;;;24.40;16.30;;;;;;;;;;6209429;23;20343;-70
2022/12/12 03:25:37;;;;;;;22.17;16.30;;;;;;;;;;6207983;23;20407;-70
2022/12/12 03:28:12;;;;;;;23.17;17.00;;;;;;;;;;6208089;23;20421;-70
2022/12/12 03:30:40;;;;;;;23.87;17.40;;;;;;;;;;6207096;23;20343;-70
2022/12/12 03:33:31;;;;;;;26.23;16.40;;;;;;;;;;6205927;23;20368;-70
2022/12/12 03:35:59;;;;;;;24.23;16.63;;;;;;;;;;6205216;23;21015;-70
2022/12/12 03:38:27;;;;;;;26.83;16.00;;;;;;;;;;6206415;23;20383;-70
2022/12/12 03:40:57;;;;;;;23.57;16.93;;;;;;;;;;6208311;23;20464;-70
2022/12/12 03:43:25;;;;;;;23.90;16.17;;;;;;;;;;6207049;23;20929;-71
2022/12/12 03:45:54;;;;;;;25.33;17.27;;;;;;;;;;6209078;23;20390;-70
2022/12/12 03:48:28;;;;;;;25.17;17.00;;;;;;;;;;6208592;23;20900;-70
2022/12/12 03:50:58;;;;;;;24.87;17.30;;;;;;;;;;6210575;23;20359;-70
2022/12/12 03:53:29;;;;;;;23.97;17.13;;;;;;;;;;6209999;23;20346;-70
2022/12/12 03:56:03;;;;;;;23.13;16.47;;;;;;;;;;6209335;23;20432;-70
2022/12/12 03:58:28;;;;;;;21.47;16.33;;;;;;;;;;6210201;23;20398;-70
2022/12/12 04:00:56;;;;;;;20.60;15.37;;;;;;;;;;6210059;23;20367;-70
2022/12/12 04:03:26;;;;;;;24.10;16.47;;;;;;;;;;6210927;23;20649;-70
2022/12/12 04:14:48;;;;;;;24.23;15.47;;;;;;;;;;6201912;23;20377;-70
2022/12/12 04:17:16;;;;;;;22.50;15.80;;;;;;;;;;6209048;23;20402;-70
2022/12/12 04:25:30;;;;;;;24.03;15.23;;;;;;;;;;6167066;23;20367;-69
2022/12/12 04:27:58;;;;;;;25.33;16.17;;;;;;;;;;6207101;23;20951;-70
2022/12/12 04:30:24;;;;;;;28.23;18.40;;;;;;;;;;6208277;23;20374;-70
2022/12/12 04:32:52;;;;;;;23.23;16.50;;;;;;;;;;6209253;23;20713;-70
2022/12/12 04:35:21;;;;;;;23.57;15.90;;;;;;;;;;6208191;23;20148;-70
2022/12/12 04:37:53;;;;;;;24.27;17.80;;;;;;;;;;6209498;23;20374;-70
2022/12/12 04:40:22;;;;;;;28.57;17.10;;;;;;;;;;6209340;23;20398;-70
2022/12/12 04:43:02;;;;;;;30.03;17.27;;;;;;;;;;6207527;23;20641;-70
2022/12/12 04:45:30;;;;;;;25.93;16.67;;;;;;;;;;6210876;23;20437;-70
2022/12/12 04:47:57;;;;;;;25.70;17.40;;;;;;;;;;6210315;23;20509;-70
2022/12/12 04:50:24;;;;;;;27.10;18.53;;;;;;;;;;6209044;23;21210;-70
2022/12/12 04:52:59;;;;;;;23.53;17.47;;;;;;;;;;6209325;23;20362;-70
2022/12/12 04:55:34;;;;;;;26.37;17.50;;;;;;;;;;6205882;23;20366;-70
2022/12/12 04:58:01;;;;;;;27.10;17.80;;;;;;;;;;6208225;23;20413;-70
2022/12/12 05:00:29;;;;;;;25.60;18.17;;;;;;;;;;6206558;23;20375;-70
2022/12/12 05:03:05;;;;;;;26.47;17.90;;;;;;;;;;6209163;23;20441;-71
2022/12/12 05:05:46;;;;;;;26.23;17.50;;;;;;;;;;6208210;23;20387;-69
2022/12/12 05:08:44;;;;;;;27.37;17.20;;;;;;;;;;6205439;23;20428;-70
2022/12/12 05:11:10;;;;;;;25.93;17.03;;;;;;;;;;6172704;23;20621;-69
2022/12/12 05:13:37;;;;;;;29.27;19.90;;;;;;;;;;6207572;23;20382;-70
2022/12/12 05:16:05;;;;;;;27.43;18.20;;;;;;;;;;6206131;23;20390;-69
2022/12/12 05:18:31;;;;;;;26.73;17.70;;;;;;;;;;6206498;23;20379;-69
2022/12/12 05:20:56;;;;;;;29.50;18.93;;;;;;;;;;6205931;23;20480;-69
2022/12/12 05:23:21;;;;;;;25.63;17.33;;;;;;;;;;6207021;23;20144;-70
2022/12/12 05:25:46;;;;;;;28.50;17.50;;;;;;;;;;6207897;23;20171;-69
2022/12/12 05:28:12;;;;;;;28.13;18.60;;;;;;;;;;6206854;23;20198;-70
2022/12/12 05:30:37;;;;;;;24.13;17.60;;;;;;;;;;6207267;23;20148;-70
2022/12/12 05:33:03;;;;;;;27.30;17.63;;;;;;;;;;6208254;23;20210;-70
2022/12/12 05:35:28;;;;;;;28.43;18.23;;;;;;;;;;6206434;23;20618;-69
2022/12/12 05:37:54;;;;;;;26.10;18.47;;;;;;;;;;6207454;23;20493;-69
2022/12/12 05:40:20;;;;;;;24.63;17.07;;;;;;;;;;6208567;23;20579;-69
2022/12/12 05:42:45;;;;;;;30.90;19.07;;;;;;;;;;6206218;23;20152;-70
2022/12/12 05:45:20;;;;;;;28.13;18.57;;;;;;;;;;6206607;23;20363;-70
2022/12/12 05:47:45;;;;;;;25.83;17.73;;;;;;;;;;6205096;23;20186;-70
2022/12/12 05:50:11;;;;;;;30.43;18.97;;;;;;;;;;6207255;23;20454;-70
2022/12/12 05:52:36;;;;;;;25.30;17.30;;;;;;;;;;6206904;23;20625;-70
2022/12/12 05:55:02;;;;;;;33.67;19.63;;;;;;;;;;6207412;23;20246;-70
2022/12/12 05:57:27;;;;;;;29.13;18.17;;;;;;;;;;6221484;23;20195;-72
2022/12/12 05:59:53;;;;;;;35.90;20.20;;;;;;;;;;6236255;23;20147;-72
2022/12/12 06:02:18;;;;;;;26.10;18.20;;;;;;;;;;6239403;23;20230;-72
2022/12/12 06:04:44;;;;;;;29.20;19.20;;;;;;;;;;6241150;23;20574;-72
2022/12/12 06:07:09;;;;;;;33.70;20.47;;;;;;;;;;6212452;23;20167;-72
2022/12/12 06:09:35;;;;;;;31.40;18.90;;;;;;;;;;6238921;23;20179;-72
2022/12/12 06:12:00;;;;;;;24.30;17.30;;;;;;;;;;6214732;23;20154;-72
2022/12/12 06:14:25;;;;;;;27.40;19.07;;;;;;;;;;6241182;23;20144;-72
2022/12/12 06:16:51;;;;;;;34.03;20.93;;;;;;;;;;6242017;23;20252;-72
2022/12/12 06:19:17;;;;;;;27.40;17.30;;;;;;;;;;6240188;23;20151;-72
2022/12/12 06:21:45;;;;;;;30.27;18.80;;;;;;;;;;6214374;23;20155;-73
2022/12/12 06:24:10;;;;;;;27.40;17.93;;;;;;;;;;6211241;23;20209;-72
2022/12/12 06:26:35;;;;;;;31.83;19.03;;;;;;;;;;6240292;23;20393;-72
2022/12/12 06:29:03;;;;;;;28.60;18.43;;;;;;;;;;6238280;23;20279;-73
2022/12/12 06:31:29;;;;;;;33.53;20.10;;;;;;;;;;6241265;23;20144;-72
2022/12/12 06:33:54;;;;;;;27.77;17.97;;;;;;;;;;6214827;23;20436;-71
2022/12/12 06:36:35;;;;;;;28.97;18.97;;;;;;;;;;6215112;23;20704;-71
2022/12/12 06:39:01;;;;;;;27.83;18.27;;;;;;;;;;6211837;23;20589;-73
2022/12/12 06:41:28;;;;;;;30.30;18.10;;;;;;;;;;6241307;23;20370;-73
2022/12/12 06:43:54;;;;;;;32.53;20.50;;;;;;;;;;6243144;23;20147;-73
2022/12/12 06:46:24;;;;;;;32.13;19.90;;;;;;;;;;6212067;23;20899;-73
2022/12/12 06:48:50;;;;;;;29.23;18.60;;;;;;;;;;6238582;23;20218;-72
2022/12/12 06:51:17;;;;;;;30.90;19.40;;;;;;;;;;6240866;23;20362;-73
2022/12/12 06:53:42;;;;;;;26.60;17.00;;;;;;;;;;6213099;23;20224;-73
2022/12/12 06:56:15;;;;;;;29.27;18.73;;;;;;;;;;6239658;23;20958;-73
2022/12/12 06:58:40;;;;;;;26.93;18.13;;;;;;;;;;6214365;23;20151;-73
2022/12/12 07:01:06;;;;;;;29.63;19.40;;;;;;;;;;6242063;23;20366;-72
2022/12/12 07:03:32;;;;;;;27.23;17.30;;;;;;;;;;6242849;23;20151;-72
2022/12/12 07:05:57;;;;;;;29.50;19.13;;;;;;;;;;6242378;23;20147;-72
2022/12/12 07:08:23;;;;;;;30.57;19.57;;;;;;;;;;6215556;23;20614;-72
2022/12/12 07:10:48;;;;;;;33.27;20.67;;;;;;;;;;6242086;23;20366;-72
2022/12/12 07:13:13;;;;;;;31.20;20.00;;;;;;;;;;6242517;23;20146;-72
2022/12/12 07:15:46;;;;;;;27.07;18.67;;;;;;;;;;6242808;23;20143;-72
2022/12/12 07:18:11;;;;;;;26.23;18.17;;;;;;;;;;6242327;23;20151;-72
2022/12/12 07:20:40;;;;;;;30.37;20.40;;;;;;;;;;6242742;23;20508;-74
2022/12/12 07:23:06;;;;;;;28.70;18.20;;;;;;;;;;6215524;23;20162;-73
2022/12/12 07:25:31;;;;;;;32.30;19.80;;;;;;;;;;6216010;23;20378;-74
2022/12/12 07:27:56;;;;;;;29.57;17.67;;;;;;;;;;6214035;23;20179;-74
2022/12/12 07:30:21;;;;;;;30.13;19.23;;;;;;;;;;6242625;23;20147;-73
2022/12/12 07:32:47;;;;;;;25.83;18.13;;;;;;;;;;6242541;23;20155;-73
2022/12/12 07:35:12;;;;;;;31.10;18.00;;;;;;;;;;6242373;23;20187;-73
2022/12/12 07:37:37;;;;;;;28.87;18.80;;;;;;;;;;6215063;23;20182;-73
2022/12/12 07:40:03;;;;;;;29.10;19.70;;;;;;;;;;6215688;23;20161;-73
2022/12/12 07:42:28;;;;;;;29.20;18.70;;;;;;;;;;6241710;23;20166;-73
2022/12/12 07:44:53;;;;;;;26.87;19.30;;;;;;;;;;6242112;23;20144;-74
2022/12/12 07:47:19;;;;;;;30.50;18.10;;;;;;;;;;6215107;23;20206;-72
2022/12/12 07:49:44;;;;;;;27.50;19.20;;;;;;;;;;6242398;23;20536;-72
2022/12/12 07:52:09;;;;;;;30.70;19.90;;;;;;;;;;6215231;23;20204;-72
2022/12/12 07:54:35;;;;;;;31.53;19.40;;;;;;;;;;6242791;23;20150;-72
2022/12/12 07:57:00;;;;;;;27.87;17.83;;;;;;;;;;6241577;23;20250;-72
2022/12/12 07:59:25;;;;;;;29.67;18.73;;;;;;;;;;6215477;23;20155;-73
2022/12/12 08:01:51;;;;;;;28.00;18.37;;;;;;;;;;6215728;23;20500;-72
2022/12/12 08:04:16;;;;;;;28.43;18.70;;;;;;;;;;6215798;23;20927;-72
2022/12/12 08:06:41;;;;;;;28.17;17.70;;;;;;;;;;6215062;23;20179;-73
2022/12/12 08:09:07;;;;;;;27.10;19.40;;;;;;;;;;6240700;23;20436;-73
2022/12/12 08:11:32;;;;;;;26.77;18.03;;;;;;;;;;6239536;23;20154;-72
2022/12/12 08:13:57;;;;;;;28.20;17.80;;;;;;;;;;6215227;23;20238;-72
2022/12/12 08:16:24;;;;;;;27.83;17.30;;;;;;;;;;6212858;23;20679;-72
2022/12/12 08:18:51;;;;;;;28.00;18.30;;;;;;;;;;6240212;23;20173;-73
2022/12/12 08:21:18;;;;;;;28.40;18.70;;;;;;;;;;6242286;23;20709;-72
2022/12/12 08:23:43;;;;;;;28.50;19.20;;;;;;;;;;6213813;23;20405;-72
2022/12/12 08:26:09;;;;;;;30.40;19.40;;;;;;;;;;6212363;23;20405;-72
2022/12/12 08:28:35;;;;;;;27.10;19.00;;;;;;;;;;6240612;23;20166;-72
2022/12/12 08:31:00;;;;;;;25.20;17.93;;;;;;;;;;6241383;23;20517;-72
2022/12/12 08:33:26;;;;;;;28.90;18.87;;;;;;;;;;6215241;23;20150;-72
2022/12/12 08:35:51;;;;;;;30.97;20.07;;;;;;;;;;6241590;23;20226;-72
2022/12/12 08:38:16;;;;;;;28.70;19.17;;;;;;;;;;6241429;23;20147;-72
2022/12/12 08:40:42;;;;;;;30.00;18.73;;;;;;;;;;6241367;23;20218;-72
2022/12/12 08:43:08;;;;;;;33.30;20.27;;;;;;;;;;6241703;23;20494;-72
2022/12/12 08:45:33;;;;;;;30.17;18.40;;;;;;;;;;6215178;23;20492;-72
2022/12/12 08:47:58;;;;;;;31.43;19.47;;;;;;;;;;6214358;23;20923;-72
2022/12/12 08:50:24;;;;;;;33.13;19.67;;;;;;;;;;6241903;23;20148;-72
2022/12/12 08:52:49;;;;;;;30.63;19.83;;;;;;;;;;6241997;23;20147;-72
2022/12/12 08:55:14;;;;;;;32.40;20.00;;;;;;;;;;6215138;23;20200;-72
2022/12/12 08:57:40;;;;;;;27.83;19.30;;;;;;;;;;6241247;23;20340;-72
2022/12/12 09:00:06;;;;;;;33.07;21.07;;;;;;;;;;6241931;23;20146;-72
2022/12/12 09:02:31;;;;;;;30.87;19.33;;;;;;;;;;6215564;23;20527;-73
2022/12/12 09:04:56;;;;;;;31.40;19.20;;;;;;;;;;6241785;23;20370;-73
2022/12/12 09:07:22;;;;;;;30.73;18.77;;;;;;;;;;6241967;23;20166;-73
2022/12/12 09:09:47;;;;;;;27.30;19.17;;;;;;;;;;6214222;23;20526;-73
2022/12/12 09:12:12;;;;;;;29.33;18.90;;;;;;;;;;6241715;23;20158;-73
2022/12/12 09:14:38;;;;;;;30.83;19.30;;;;;;;;;;6215173;23;20609;-73
2022/12/12 09:17:03;;;;;;;30.80;20.00;;;;;;;;;;6241489;23;20517;-73
2022/12/12 09:19:28;;;;;;;26.77;17.97;;;;;;;;;;6241692;23;20148;-73
2022/12/12 09:21:53;;;;;;;29.23;19.20;;;;;;;;;;6241806;23;20147;-73
2022/12/12 09:24:19;;;;;;;31.40;20.03;;;;;;;;;;6242071;23;20147;-73
2022/12/12 09:26:44;;;;;;;32.80;21.27;;;;;;;;;;6214846;23;20225;-73
2022/12/12 09:29:09;;;;;;;31.50;20.20;;;;;;;;;;6240654;23;20888;-73
2022/12/12 09:31:35;;;;;;;31.50;20.20;;;;;;;;;;6241641;23;20220;-73
2022/12/12 09:34:00;;;;;;;29.87;19.97;;;;;;;;;;6241543;23;20187;-73
2022/12/12 09:36:25;;;;;;;29.30;19.50;;;;;;;;;;6242095;23;20171;-72
2022/12/12 09:38:51;;;;;;;33.10;20.80;;;;;;;;;;6243314;23;20153;-72
2022/12/12 09:41:17;;;;;;;34.00;20.87;;;;;;;;;;6216290;23;20155;-73
2022/12/12 09:43:43;;;;;;;31.67;20.10;;;;;;;;;;6216830;23;20151;-73
2022/12/12 09:46:18;;;;;;;29.93;21.53;;;;;;;;;;6215945;23;20452;-72
2022/12/12 09:48:45;;;;;;;32.53;20.20;;;;;;;;;;6243230;23;20163;-72
2022/12/12 09:51:10;;;;;;;32.53;22.40;;;;;;;;;;6243464;23;20412;-73
2022/12/12 09:53:37;;;;;;;38.23;20.20;;;;;;;;;;6216611;23;20858;-73
2022/12/12 09:56:18;;;;;;;34.73;21.43;;;;;;;;;;6243091;23;20166;-73
2022/12/12 09:58:43;;;;;;;36.33;21.90;;;;;;;;;;6216031;23;20398;-73
2022/12/12 10:01:18;;;;;;;30.27;19.90;;;;;;;;;;6216425;23;20382;-73
2022/12/12 10:03:49;;;;;;;33.40;20.83;;;;;;;;;;6242582;23;20155;-73
2022/12/12 10:06:16;;;;;;;31.03;19.13;;;;;;;;;;6216305;23;20493;-72
2022/12/12 10:09:07;;;;;;;30.90;19.53;;;;;;;;;;6216369;23;20476;-72
2022/12/12 10:11:50;;;;;;;31.23;20.03;;;;;;;;;;6243625;23;20350;-72
2022/12/12 10:14:24;;;;;;;34.47;21.73;;;;;;;;;;6243260;23;20351;-72
2022/12/12 10:16:50;;;;;;;31.83;20.83;;;;;;;;;;6214141;23;20394;-73
2022/12/12 10:19:21;;;;;;;34.80;22.60;;;;;;;;;;6241825;23;20401;-72
2022/12/12 10:21:46;;;;;;;30.73;20.07;;;;;;;;;;6243293;23;20198;-72
2022/12/12 10:24:23;;;;;;;32.90;21.60;;;;;;;;;;6243144;23;20379;-72
2022/12/12 10:26:49;;;;;;;33.30;21.37;;;;;;;;;;6216075;23;20178;-72
2022/12/12 10:29:17;;;;;;;35.37;23.20;;;;;;;;;;6242608;23;20906;-72
2022/12/12 10:31:45;;;;;;;34.73;21.90;;;;;;;;;;6216083;23;20147;-72
2022/12/12 10:34:13;;;;;;;34.00;21.37;;;;;;;;;;6241796;23;20362;-72
2022/12/12 10:36:57;;;;;;;34.10;21.17;;;;;;;;;;6242635;23;20382;-72
2022/12/12 10:39:47;;;;;;;28.40;19.00;;;;;;;;;;6242125;23;20366;-72
2022/12/12 10:42:12;;;;;;;32.30;21.37;;;;;;;;;;6242597;23;20817;-72
2022/12/12 10:44:40;;;;;;;32.07;21.73;;;;;;;;;;6243331;23;20421;-72
2022/12/12 10:47:08;;;;;;;36.20;21.70;;;;;;;;;;6215667;23;20194;-72
2022/12/12 10:49:34;;;;;;;29.47;19.87;;;;;;;;;;6216046;23;20426;-72
2022/12/12 10:52:01;;;;;;;33.13;21.67;;;;;;;;;;6242400;23;20397;-71
2022/12/12 10:54:27;;;;;;;32.50;20.73;;;;;;;;;;6241262;23;20457;-71
2022/12/12 10:57:25;;;;;;;28.20;18.60;;;;;;;;;;6224155;23;20438;-72
2022/12/12 10:59:51;;;;;;;31.23;21.20;;;;;;;;;;6225667;22;20864;-71
2022/12/12 11:02:26;;;;;;;33.97;21.20;;;;;;;;;;6243307;23;20389;-72
2022/12/12 11:05:06;;;;;;;31.27;20.83;;;;;;;;;;6243613;23;20378;-71
2022/12/12 11:07:35;;;;;;;26.90;18.60;;;;;;;;;;6243786;23;20390;-71
2022/12/12 11:10:01;;;;;;;32.00;19.93;;;;;;;;;;6245294;22;20369;-72
2022/12/12 11:12:33;;;;;;;28.90;19.37;;;;;;;;;;6242533;22;20370;-72
2022/12/12 11:15:02;;;;;;;32.23;20.77;;;;;;;;;;6242449;23;20230;-74
2022/12/12 11:17:29;;;;;;;28.03;20.30;;;;;;;;;;6243300;23;20398;-72
2022/12/12 11:19:57;;;;;;;29.83;20.93;;;;;;;;;;6245954;22;20390;-72
2022/12/12 11:22:23;;;;;;;31.13;21.00;;;;;;;;;;6246950;22;20366;-72
2022/12/12 11:24:49;;;;;;;30.43;19.77;;;;;;;;;;6244687;22;20456;-72
2022/12/12 11:27:31;;;;;;;23.67;17.97;;;;;;;;;;6240917;23;20394;-72
2022/12/12 11:30:01;;;;;;;28.10;19.43;;;;;;;;;;6242875;22;20601;-72
2022/12/12 11:32:36;;;;;;;29.73;19.57;;;;;;;;;;6241999;23;20371;-72
2022/12/12 11:35:03;;;;;;;26.23;19.10;;;;;;;;;;6242873;23;20384;-72
2022/12/12 11:37:36;;;;;;;27.23;19.57;;;;;;;;;;6242157;22;20378;-72
2022/12/12 11:40:02;;;;;;;24.63;18.63;;;;;;;;;;6242451;22;20354;-72
2022/12/12 11:42:29;;;;;;;29.37;19.40;;;;;;;;;;6242133;22;20446;-72
2022/12/12 11:45:01;;;;;;;28.40;19.23;;;;;;;;;;6240813;23;20366;-72
2022/12/12 11:47:27;;;;;;;25.80;17.73;;;;;;;;;;6239293;23;20748;-73
2022/12/12 11:49:56;;;;;;;26.93;18.30;;;;;;;;;;6240401;23;20390;-72
2022/12/12 11:52:23;;;;;;;25.30;17.27;;;;;;;;;;6243456;22;20363;-73
2022/12/12 11:54:49;;;;;;;23.20;17.93;;;;;;;;;;6242564;22;20445;-72
2022/12/12 11:57:23;;;;;;;26.27;17.67;;;;;;;;;;6240016;23;20468;-72
2022/12/12 12:02:36;;;;;;;23.63;16.83;;;;;;;;;;6265695;22;20412;-71
2022/12/12 12:05:30;;;;;;;25.43;17.83;;;;;;;;;;6272101;22;20389;-71
2022/12/12 12:08:05;;;;;;;21.63;16.37;;;;;;;;;;6162131;22;20995;-71
2022/12/12 12:10:49;;;;;;;28.60;17.80;;;;;;;;;;6272897;22;20392;-71
2022/12/12 12:13:20;;;;;;;21.70;15.67;;;;;;;;;;6272471;22;20523;-70
2022/12/12 12:15:51;;;;;;;27.10;16.53;;;;;;;;;;6272595;22;20418;-71
2022/12/12 12:18:20;;;;;;;21.97;16.13;;;;;;;;;;6272521;22;20373;-71
2022/12/12 12:21:06;;;;;;;22.50;15.70;;;;;;;;;;6271876;22;20393;-70
2022/12/12 12:23:37;;;;;;;24.50;16.87;;;;;;;;;;6272734;22;20345;-70
2022/12/12 12:26:10;;;;;;;22.53;16.10;;;;;;;;;;6271732;22;20357;-70
2022/12/12 12:28:51;;;;;;;22.30;16.50;;;;;;;;;;6271152;22;20455;-71
2022/12/12 12:31:23;;;;;;;21.07;16.57;;;;;;;;;;6272368;22;20385;-71
2022/12/12 12:33:57;;;;;;;24.03;16.00;;;;;;;;;;6271945;22;20421;-71
2022/12/12 12:36:22;;;;;;;22.70;16.53;;;;;;;;;;6272959;22;20365;-73
2022/12/12 12:39:06;;;;;;;24.20;16.60;;;;;;;;;;6271189;22;20611;-74
2022/12/12 12:41:44;;;;;;;24.63;16.93;;;;;;;;;;6272566;22;20166;-71
2022/12/12 12:44:18;;;;;;;23.67;16.97;;;;;;;;;;6271634;22;20709;-71
2022/12/12 12:46:58;;;;;;;20.23;15.20;;;;;;;;;;6272475;22;20349;-71
2022/12/12 12:49:26;;;;;;;20.50;15.40;;;;;;;;;;6271865;22;20400;-71
2022/12/12 12:51:51;;;;;;;22.80;16.87;;;;;;;;;;6272691;22;20446;-71
2022/12/12 12:54:26;;;;;;;22.50;16.17;;;;;;;;;;6271645;22;20759;-70
2022/12/12 12:56:54;;;;;;;18.87;14.63;;;;;;;;;;6272393;22;20142;-71
2022/12/12 12:59:21;;;;;;;15.80;13.30;;;;;;;;;;6271638;22;20816;-71
2022/12/12 13:01:51;;;;;;;15.90;12.40;;;;;;;;;;6271856;22;20408;-71
2022/12/12 13:04:19;;;;;;;18.00;13.60;;;;;;;;;;6272540;22;20376;-71
2022/12/12 13:06:45;;;;;;;17.30;13.13;;;;;;;;;;6271865;22;20448;-71
2022/12/12 13:09:10;;;;;;;15.20;12.07;;;;;;;;;;6271753;22;20433;-71
2022/12/12 13:11:38;;;;;;;14.90;12.03;;;;;;;;;;6272914;22;20600;-71
2022/12/12 13:14:15;;;;;;;14.70;12.20;;;;;;;;;;6273964;22;20203;-71
2022/12/12 13:16:41;;;;;;;15.63;12.20;;;;;;;;;;6274380;22;20791;-71
2022/12/12 13:19:14;;;;;;;17.50;13.23;;;;;;;;;;6273874;22;20365;-71
2022/12/12 13:21:49;;;;;;;16.60;11.63;;;;;;;;;;6274538;22;20472;-71
2022/12/12 13:24:18;;;;;;;13.20;10.73;;;;;;;;;;6272601;22;20369;-71
2022/12/12 13:26:48;;;;;;;15.23;11.63;;;;;;;;;;6274647;22;20370;-71
2022/12/12 13:29:22;;;;;;;16.43;13.00;;;;;;;;;;6271869;22;20874;-71
2022/12/12 13:32:05;;;;;;;16.40;12.00;;;;;;;;;;6273230;22;20419;-71
2022/12/12 13:34:35;;;;;;;15.10;11.40;;;;;;;;;;6274189;22;20869;-71
2022/12/12 13:37:04;;;;;;;17.23;12.27;;;;;;;;;;6274135;22;20699;-71
2022/12/12 13:39:29;;;;;;;20.00;13.90;;;;;;;;;;6273420;22;20419;-71
2022/12/12 13:42:10;;;;;;;14.87;11.60;;;;;;;;;;6272917;22;20389;-72
2022/12/12 13:44:43;;;;;;;15.80;12.57;;;;;;;;;;6274023;22;20142;-71
2022/12/12 13:47:20;;;;;;;18.63;13.83;;;;;;;;;;6273299;22;20769;-71
2022/12/12 13:49:46;;;;;;;17.77;12.10;;;;;;;;;;6273785;22;20409;-71
2022/12/12 13:52:22;;;;;;;14.50;10.80;;;;;;;;;;6273794;22;20389;-71
2022/12/12 13:54:48;;;;;;;17.00;11.60;;;;;;;;;;6274331;22;20491;-71
2022/12/12 13:57:24;;;;;;;19.30;13.60;;;;;;;;;;6274167;22;20444;-71
2022/12/12 13:59:52;;;;;;;18.17;12.90;;;;;;;;;;6273579;22;20146;-71
2022/12/12 14:02:17;;;;;;;18.10;13.93;;;;;;;;;;6273871;22;20458;-71
2022/12/12 14:04:43;;;;;;;17.73;13.30;;;;;;;;;;6273053;22;20369;-71
2022/12/12 14:07:11;;;;;;;19.40;12.70;;;;;;;;;;6274248;22;20521;-71
2022/12/12 14:09:38;;;;;;;15.63;11.97;;;;;;;;;;6246038;22;20174;-71
2022/12/12 14:12:14;;;;;;;16.83;12.77;;;;;;;;;;6274122;22;20441;-71
2022/12/12 14:14:40;;;;;;;16.40;12.57;;;;;;;;;;6273553;22;20400;-71
2022/12/12 14:17:16;;;;;;;14.10;10.80;;;;;;;;;;6273280;22;20859;-71
2022/12/12 14:19:42;;;;;;;17.90;12.50;;;;;;;;;;6273097;22;20135;-71
2022/12/12 14:22:24;;;;;;;15.77;12.27;;;;;;;;;;6273146;22;20412;-71
2022/12/12 14:25:12;;;;;;;16.70;12.70;;;;;;;;;;6273545;22;20141;-71
2022/12/12 14:27:47;;;;;;;15.20;11.63;;;;;;;;;;6255908;22;20722;-71
2022/12/12 14:30:17;;;;;;;16.27;11.90;;;;;;;;;;6274051;22;20901;-71
2022/12/12 14:32:50;;;;;;;18.80;11.83;;;;;;;;;;6273541;22;20368;-71
2022/12/12 14:35:27;;;;;;;15.80;11.87;;;;;;;;;;6273772;22;20711;-71
2022/12/12 14:38:12;;;;;;;16.87;11.90;;;;;;;;;;6272691;22;20553;-71
2022/12/12 14:40:41;;;;;;;17.13;12.43;;;;;;;;;;6246664;22;20397;-71
2022/12/12 14:43:12;;;;;;;16.90;12.27;;;;;;;;;;6244901;22;20775;-71
2022/12/12 14:45:39;;;;;;;18.20;12.77;;;;;;;;;;6274069;22;20688;-71
2022/12/12 14:48:07;;;;;;;16.33;11.83;;;;;;;;;;6273108;22;20489;-71
2022/12/12 14:50:32;;;;;;;17.83;12.17;;;;;;;;;;6273465;22;20386;-71